Time;durP1;ratioP1;P1;durP2;ratioP2;P2;SDS_P1;SDS_P2;PMS_P1;PMS_P2;Temp;Humidity;BMP_temperature;BMP_pressure;BME280_temperature;BME280_humidity;BME280_pressure;Samples;Min_cycle;Max_cycle;Signal;HPM_P1;HPM_P2
2022/04/25 00:02:07;;;;;;;20.17;18.27;;;;;;;9.53;100.00;97086.94;4976893;28;20204;-72
2022/04/25 00:04:34;;;;;;;21.23;18.97;;;;;;;9.45;100.00;97082.81;4974512;28;20216;-71
2022/04/25 00:07:00;;;;;;;20.77;18.67;;;;;;;9.41;100.00;97078.22;4976444;28;20596;-72
2022/04/25 00:09:27;;;;;;;21.37;19.17;;;;;;;9.39;100.00;97089.06;4976808;28;20571;-72
2022/04/25 00:11:53;;;;;;;21.67;19.57;;;;;;;9.45;100.00;97090.78;4976424;28;20687;-72
2022/04/25 00:14:20;;;;;;;20.20;18.23;;;;;;;9.44;100.00;97085.69;4976617;28;20698;-72
2022/04/25 00:16:46;;;;;;;21.27;19.23;;;;;;;9.45;100.00;97082.81;4976265;28;20208;-72
2022/04/25 00:19:13;;;;;;;22.03;19.83;;;;;;;9.42;100.00;97083.28;4975337;28;20216;-72
2022/04/25 00:21:39;;;;;;;21.50;19.33;;;;;;;9.46;100.00;97079.13;4976222;28;20219;-72
2022/04/25 00:24:06;;;;;;;21.43;19.43;;;;;;;9.45;100.00;97089.97;4976211;28;20694;-72
2022/04/25 00:26:32;;;;;;;23.60;21.40;;;;;;;9.43;100.00;97094.72;4974283;28;20232;-72
2022/04/25 00:29:00;;;;;;;24.40;21.90;;;;;;;9.41;100.00;97091.50;4976077;28;20215;-71
2022/04/25 00:31:26;;;;;;;23.17;20.97;;;;;;;9.42;100.00;97093.88;4976353;28;20783;-72
2022/04/25 00:33:52;;;;;;;23.73;21.33;;;;;;;9.42;100.00;97095.75;4976317;28;20576;-72
2022/04/25 00:36:19;;;;;;;23.47;21.27;;;;;;;9.41;100.00;97096.81;4976251;28;20234;-72
2022/04/25 00:38:45;;;;;;;22.23;20.00;;;;;;;9.45;100.00;97095.28;4975334;28;20674;-71
2022/04/25 00:41:12;;;;;;;23.87;21.67;;;;;;;9.37;100.00;97091.13;4975267;28;20565;-71
2022/04/25 00:43:38;;;;;;;23.07;20.97;;;;;;;9.36;100.00;97086.88;4976001;28;20302;-72
2022/04/25 00:46:05;;;;;;;22.93;20.83;;;;;;;9.36;100.00;97094.03;4976004;28;20231;-72
2022/04/25 00:48:32;;;;;;;24.40;22.10;;;;;;;9.30;100.00;97089.66;4975789;28;20243;-71
2022/04/25 00:50:58;;;;;;;24.67;22.33;;;;;;;9.25;100.00;97093.03;4975988;28;20212;-71
2022/04/25 00:53:24;;;;;;;22.93;20.73;;;;;;;9.28;100.00;97099.72;4973398;28;20207;-72
2022/04/25 00:55:51;;;;;;;23.53;21.40;;;;;;;9.20;100.00;97090.28;4975882;28;20208;-72
2022/04/25 00:58:18;;;;;;;22.93;20.83;;;;;;;9.21;100.00;97099.03;4974667;28;20575;-72
2022/04/25 01:00:46;;;;;;;23.13;20.93;;;;;;;9.17;100.00;97103.16;4975818;28;20212;-72
2022/04/25 01:03:13;;;;;;;24.87;22.57;;;;;;;9.13;100.00;97099.38;4974604;28;20207;-71
2022/04/25 01:05:40;;;;;;;24.63;22.43;;;;;;;9.09;100.00;97100.91;4975658;28;20279;-71
2022/04/25 01:08:08;;;;;;;25.23;22.83;;;;;;;8.98;100.00;97101.69;4975309;28;20239;-71
2022/04/25 01:10:34;;;;;;;26.40;23.90;;;;;;;8.92;100.00;97094.69;4974278;28;20218;-72
2022/04/25 01:13:00;;;;;;;25.50;23.20;;;;;;;8.88;100.00;97096.19;4975465;28;20207;-72
2022/04/25 01:15:28;;;;;;;24.20;22.03;;;;;;;8.89;100.00;97098.59;4976043;28;20214;-72
2022/04/25 01:17:56;;;;;;;25.97;23.43;;;;;;;8.83;100.00;97107.47;4975126;28;20318;-72
2022/04/25 01:20:22;;;;;;;26.67;24.27;;;;;;;8.78;100.00;97101.25;4975162;28;20683;-72
2022/04/25 01:27:15;;;;;;;27.63;24.83;;;;;;;8.83;100.00;97104.03;4975421;28;20204;-71
2022/04/25 01:28:36;;;;;;;27.37;24.63;;;;;;;8.70;100.00;97109.53;4975115;28;20214;-71
2022/04/25 01:31:02;;;;;;;28.17;25.40;;;;;;;8.66;100.00;97113.69;4975015;28;20675;-71
2022/04/25 01:33:29;;;;;;;27.77;24.93;;;;;;;8.75;100.00;97118.41;4975233;28;20212;-71
2022/04/25 01:35:55;;;;;;;26.23;23.93;;;;;;;8.78;100.00;97109.22;4974896;28;20218;-72
2022/04/25 01:38:22;;;;;;;27.47;24.93;;;;;;;8.70;100.00;97109.53;4975111;28;20227;-71
2022/04/25 01:40:48;;;;;;;26.87;24.37;;;;;;;8.79;100.00;97119.56;4975197;28;20212;-72
2022/04/25 01:43:15;;;;;;;27.47;24.77;;;;;;;8.79;100.00;97111.59;4973568;28;20208;-71
2022/04/25 01:45:41;;;;;;;28.03;25.33;;;;;;;8.88;100.00;97120.03;4974684;28;20595;-72
2022/04/25 01:48:08;;;;;;;29.37;26.57;;;;;;;8.74;100.00;97116.00;4974716;28;20236;-72
2022/04/25 01:50:34;;;;;;;29.23;26.40;;;;;;;8.73;100.00;97114.38;4975007;28;20203;-72
2022/04/25 01:53:01;;;;;;;28.43;25.67;;;;;;;8.71;100.00;97124.41;4975007;28;20239;-72
2022/04/25 01:55:27;;;;;;;28.33;25.63;;;;;;;8.76;100.00;97125.31;4974471;28;20207;-72
2022/04/25 01:57:54;;;;;;;28.47;25.70;;;;;;;8.81;100.00;97117.50;4974502;28;20231;-72
2022/04/25 02:00:21;;;;;;;29.60;26.90;;;;;;;8.73;100.00;97114.38;4969723;28;20211;-72
2022/04/25 02:02:47;;;;;;;29.90;27.00;;;;;;;8.66;100.00;97129.56;4975409;28;20212;-71
2022/04/25 02:05:13;;;;;;;31.23;28.10;;;;;;;8.61;100.00;97121.50;4974760;28;20231;-71
2022/04/25 02:07:40;;;;;;;30.93;28.03;;;;;;;8.60;100.00;97123.34;4974744;28;20223;-71
2022/04/25 02:10:07;;;;;;;30.90;27.87;;;;;;;8.57;100.00;97128.31;4973370;28;20211;-71
2022/04/25 02:12:34;;;;;;;32.20;28.97;;;;;;;8.53;100.00;97119.19;4974802;28;20208;-71
2022/04/25 02:15:02;;;;;;;31.47;28.37;;;;;;;8.53;100.00;97127.97;4974151;28;20710;-71
2022/04/25 02:17:28;;;;;;;28.53;25.83;;;;;;;8.61;100.00;97124.97;4974627;28;20228;-72
2022/04/25 02:19:54;;;;;;;29.53;26.80;;;;;;;8.65;100.00;97130.63;4974430;28;20208;-71
2022/04/25 02:22:21;;;;;;;30.53;27.63;;;;;;;8.62;100.00;97131.06;4974370;28;20675;-71
2022/04/25 02:24:47;;;;;;;28.83;26.03;;;;;;;8.67;100.00;97134.66;4974290;28;20675;-72
2022/04/25 02:27:14;;;;;;;29.07;26.27;;;;;;;8.66;100.00;97134.88;4974592;28;20224;-72
2022/04/25 02:29:40;;;;;;;29.47;26.57;;;;;;;8.71;100.00;97143.75;4973430;28;20207;-72
2022/04/25 02:32:07;;;;;;;28.00;25.30;;;;;;;8.70;100.00;97144.81;4974319;28;20737;-71
2022/04/25 02:34:34;;;;;;;28.60;25.87;;;;;;;8.70;100.00;97136.03;4973597;28;20208;-72
2022/04/25 02:37:00;;;;;;;27.93;25.30;;;;;;;8.76;100.00;97145.72;4974209;28;20228;-71
2022/04/25 02:39:26;;;;;;;29.70;26.70;;;;;;;8.76;100.00;97141.22;4975076;28;20215;-71
2022/04/25 02:41:53;;;;;;;28.67;26.03;;;;;;;8.72;100.00;97134.78;4974531;28;20239;-72
2022/04/25 02:44:20;;;;;;;29.00;26.20;;;;;;;8.74;100.00;97142.50;4973013;28;20208;-71
2022/04/25 02:46:46;;;;;;;30.40;27.40;;;;;;;8.84;100.00;97135.59;4974686;28;20304;-71
2022/04/25 02:49:12;;;;;;;27.67;25.07;;;;;;;8.76;100.00;97143.06;4974202;28;20640;-71
2022/04/25 02:51:39;;;;;;;28.93;26.17;;;;;;;8.73;100.00;97131.06;4974452;28;20208;-71
2022/04/25 02:54:05;;;;;;;27.93;25.13;;;;;;;8.73;100.00;97133.72;4974393;28;20228;-72
2022/04/25 02:56:32;;;;;;;28.53;25.77;;;;;;;8.77;100.00;97148.13;4974200;28;20621;-71
2022/04/25 02:58:58;;;;;;;27.47;24.67;;;;;;;8.79;100.00;97147.91;4974364;28;20212;-72
2022/04/25 03:01:24;;;;;;;26.53;24.07;;;;;;;8.74;100.00;97150.44;4972541;28;20200;-71
2022/04/25 03:03:51;;;;;;;27.10;24.50;;;;;;;8.73;100.00;97151.50;4974274;28;20214;-72
2022/04/25 03:06:17;;;;;;;28.20;25.40;;;;;;;8.81;100.00;97143.19;4974816;28;20232;-71
2022/04/25 03:08:43;;;;;;;28.73;25.93;;;;;;;8.69;100.00;97160.94;4977749;28;20237;-71
2022/04/25 03:11:10;;;;;;;26.60;24.00;;;;;;;8.69;100.00;97150.31;4977838;28;20215;-71
2022/04/25 03:13:38;;;;;;;29.33;26.43;;;;;;;8.69;100.00;97151.13;4977453;28;20675;-71
2022/04/25 03:16:05;;;;;;;27.27;24.67;;;;;;;8.62;100.00;97147.78;4977955;28;20206;-71
2022/04/25 03:18:32;;;;;;;29.53;26.57;;;;;;;8.56;100.00;97158.47;4975969;28;20227;-71
2022/04/25 03:20:59;;;;;;;29.43;26.53;;;;;;;8.48;100.00;97159.63;4977683;28;20234;-71
2022/04/25 03:23:26;;;;;;;30.73;27.53;;;;;;;8.39;100.00;97160.16;4977477;28;20214;-71
2022/04/25 03:25:52;;;;;;;28.70;25.90;;;;;;;8.40;100.00;97159.13;4977487;28;20232;-71
2022/04/25 03:28:19;;;;;;;28.80;26.10;;;;;;;8.37;100.00;97170.19;4977375;28;20234;-71
2022/04/25 03:30:46;;;;;;;28.77;26.00;;;;;;;8.38;100.00;97169.16;4977220;28;20207;-71
2022/04/25 03:33:15;;;;;;;29.03;26.23;;;;;;;8.42;100.00;97170.31;4976191;28;20214;-71
2022/04/25 03:35:46;;;;;;;29.90;26.90;;;;;;;8.21;100.00;97181.41;4957864;28;20209;-71
2022/04/25 03:38:13;;;;;;;28.77;25.77;;;;;;;8.10;100.00;97182.16;4957823;28;20782;-71
2022/04/25 03:40:40;;;;;;;29.43;26.53;;;;;;;8.09;100.00;97180.50;4957733;29;20224;-71
2022/04/25 03:43:06;;;;;;;31.37;28.33;;;;;;;8.12;100.00;97185.38;4957960;29;20209;-71
2022/04/25 03:45:34;;;;;;;30.60;27.60;;;;;;;8.07;100.00;97185.22;4957622;28;20221;-71
2022/04/25 03:48:00;;;;;;;30.90;27.90;;;;;;;8.18;100.00;97184.47;4957464;28;20610;-71
2022/04/25 03:50:26;;;;;;;31.17;28.07;;;;;;;8.28;100.00;97187.44;4960682;28;20211;-71
2022/04/25 03:52:53;;;;;;;32.43;29.10;;;;;;;8.26;100.00;97184.19;4976936;28;20214;-71
2022/04/25 03:58:05;;;;;;;32.93;29.67;;;;;;;8.31;100.00;97194.91;4976235;28;20236;-71
2022/04/25 04:00:34;;;;;;;31.50;28.50;;;;;;;8.24;100.00;97188.91;4976942;28;20207;-71
2022/04/25 04:03:00;;;;;;;31.17;28.13;;;;;;;8.22;100.00;97196.25;4976499;28;20212;-71
2022/04/25 04:05:28;;;;;;;31.63;28.50;;;;;;;8.18;100.00;97201.16;4976736;28;20232;-71
2022/04/25 04:07:54;;;;;;;32.07;28.87;;;;;;;8.17;100.00;97204.84;4975912;28;20239;-71
2022/04/25 04:10:21;;;;;;;30.97;27.73;;;;;;;8.17;100.00;97214.63;4975984;28;20208;-71
2022/04/25 04:12:48;;;;;;;32.37;29.07;;;;;;;8.18;100.00;97214.41;4975018;28;20698;-72
2022/04/25 04:15:17;;;;;;;31.20;27.93;;;;;;;8.15;100.00;97216.69;4974029;28;20200;-72
2022/04/25 04:17:44;;;;;;;32.73;29.50;;;;;;;8.10;100.00;97219.22;4976001;28;20585;-71
2022/04/25 04:20:11;;;;;;;34.13;30.60;;;;;;;8.14;100.00;97209.78;4976579;28;20215;-72
2022/04/25 04:22:38;;;;;;;31.90;28.60;;;;;;;8.15;100.00;97216.69;4976182;28;20682;-71
2022/04/25 04:25:06;;;;;;;30.77;27.63;;;;;;;8.22;100.00;97233.31;4975223;28;20219;-71
2022/04/25 04:27:33;;;;;;;31.53;28.43;;;;;;;8.27;100.00;97225.50;4976217;28;20246;-71
2022/04/25 04:30:00;;;;;;;30.33;27.37;;;;;;;8.33;100.00;97227.28;4976322;28;20211;-72
2022/04/25 04:32:29;;;;;;;30.50;27.50;;;;;;;8.35;100.00;97231.31;4976263;28;20214;-72
2022/04/25 04:34:56;;;;;;;28.93;26.07;;;;;;;8.36;100.00;97245.34;4976112;28;20215;-72
2022/04/25 04:37:23;;;;;;;30.40;27.40;;;;;;;8.41;100.00;97245.50;4976022;28;20231;-71
2022/04/25 04:39:49;;;;;;;31.77;28.50;;;;;;;8.36;100.00;97245.34;4975986;28;20215;-71
2022/04/25 04:42:16;;;;;;;32.43;29.13;;;;;;;8.36;100.00;97242.69;4974264;28;20204;-71
2022/04/25 04:44:43;;;;;;;31.63;28.30;;;;;;;8.33;100.00;97243.97;4976011;28;20211;-71
2022/04/25 04:47:10;;;;;;;32.00;28.90;;;;;;;8.36;100.00;97248.81;4975442;28;20718;-72
2022/04/25 04:49:37;;;;;;;32.37;29.17;;;;;;;8.41;100.00;97250.81;4975126;28;20212;-71
2022/04/25 04:52:04;;;;;;;32.87;29.47;;;;;;;8.42;100.00;97250.56;4975845;28;20261;-71
2022/04/25 04:54:30;;;;;;;30.77;27.77;;;;;;;8.43;100.00;97252.19;4975680;28;20541;-71
2022/04/25 04:56:56;;;;;;;34.10;30.60;;;;;;;8.51;100.00;97262.44;4975468;28;20224;-71
2022/04/25 04:59:23;;;;;;;31.57;28.50;;;;;;;8.49;100.00;97264.53;4973455;28;20212;-71
2022/04/25 05:01:49;;;;;;;31.40;28.20;;;;;;;8.55;100.00;97268.91;4974854;28;20652;-71
2022/04/25 05:04:15;;;;;;;31.37;28.20;;;;;;;8.51;100.00;97272.25;4974855;28;20220;-71
2022/04/25 05:06:42;;;;;;;30.57;27.57;;;;;;;8.57;100.00;97263.41;4974915;28;20220;-71
2022/04/25 05:09:09;;;;;;;31.00;27.70;;;;;;;8.57;100.00;97274.00;4975017;28;20211;-71
2022/04/25 05:11:35;;;;;;;31.33;28.13;;;;;;;8.66;100.00;97272.66;4975154;28;20223;-71
2022/04/25 05:14:07;;;;;;;31.17;28.07;;;;;;;8.59;100.00;97280.69;4974873;28;20225;-71
2022/04/25 05:16:33;;;;;;;32.90;29.73;;;;;;;8.63;100.00;97278.38;4973435;28;20200;-71
2022/04/25 05:18:59;;;;;;;31.00;27.83;;;;;;;8.61;100.00;97277.81;4975167;28;20211;-71
2022/04/25 05:21:26;;;;;;;32.00;28.80;;;;;;;8.68;100.00;97281.16;4975664;28;20216;-71
2022/04/25 05:23:52;;;;;;;30.93;27.83;;;;;;;8.76;100.00;97280.84;4974097;28;20212;-72
2022/04/25 05:26:19;;;;;;;29.30;26.50;;;;;;;8.78;100.00;97289.41;4974843;28;20224;-71
2022/04/25 05:28:45;;;;;;;30.07;27.10;;;;;;;8.79;100.00;97283.84;4974119;28;20232;-71
2022/04/25 05:31:11;;;;;;;29.03;26.17;;;;;;;8.87;100.00;97286.19;4973920;28;20211;-71
2022/04/25 05:33:38;;;;;;;28.37;25.57;;;;;;;8.97;100.00;97291.75;4974753;28;20219;-71
2022/04/25 05:36:05;;;;;;;29.13;26.33;;;;;;;9.01;100.00;97294.75;4974588;28;20210;-71
2022/04/25 05:38:31;;;;;;;28.30;25.63;;;;;;;8.99;100.00;97294.16;4974752;28;20227;-72
2022/04/25 05:40:58;;;;;;;29.87;26.87;;;;;;;9.03;100.00;97298.81;4974360;28;20214;-72
2022/04/25 05:43:25;;;;;;;29.00;26.17;;;;;;;9.12;100.00;97300.09;4974564;28;20215;-71
2022/04/25 05:45:52;;;;;;;30.20;27.20;;;;;;;9.21;100.00;97303.22;4974849;28;20219;-71
2022/04/25 05:53:45;;;;;;;26.40;23.90;;;;;;;9.24;100.00;97311.50;4974541;28;20255;-72
2022/04/25 05:56:12;;;;;;;30.10;27.23;;;;;;;9.34;100.00;97306.47;4974546;28;20204;-71
2022/04/25 05:58:38;;;;;;;26.73;24.23;;;;;;;9.27;100.00;97303.09;4974661;28;20228;-72
2022/04/25 06:01:05;;;;;;;26.73;24.23;;;;;;;9.29;100.00;97300.22;4974601;28;20212;-71
2022/04/25 06:03:31;;;;;;;25.73;23.30;;;;;;;9.40;100.00;97310.03;4974623;28;20219;-72
2022/04/25 06:05:58;;;;;;;25.67;23.27;;;;;;;9.47;100.00;97314.22;4972788;28;20242;-71
2022/04/25 06:08:24;;;;;;;26.47;23.97;;;;;;;9.63;100.00;97312.69;4974412;28;20238;-72
2022/04/25 06:10:50;;;;;;;23.30;21.20;;;;;;;9.58;100.00;97312.59;4974485;28;20216;-71
2022/04/25 06:13:17;;;;;;;27.67;25.00;;;;;;;9.69;100.00;97312.59;4974863;28;20219;-71
2022/04/25 06:15:44;;;;;;;26.57;24.07;;;;;;;9.81;100.00;97316.06;4974013;28;20560;-71
2022/04/25 06:18:10;;;;;;;26.63;24.03;;;;;;;10.00;100.00;97309.56;4973111;28;20599;-71
2022/04/25 06:20:37;;;;;;;23.87;21.67;;;;;;;10.08;100.00;97316.38;4973275;28;20551;-71
2022/04/25 06:23:04;;;;;;;23.73;21.53;;;;;;;10.28;100.00;97309.66;4974124;28;20216;-71
2022/04/25 06:25:31;;;;;;;22.33;20.23;;;;;;;10.60;100.00;97307.38;4974549;28;20214;-72
2022/04/25 06:27:58;;;;;;;20.70;18.83;;;;;;;10.45;97.31;97318.50;4973802;28;20711;-71
2022/04/25 06:30:28;;;;;;;18.53;16.93;;;;;;;10.25;93.40;97317.28;4972989;28;20754;-71
2022/04/25 06:32:54;;;;;;;18.40;16.80;;;;;;;10.22;93.61;97323.88;4974358;28;20578;-71
2022/04/25 06:35:21;;;;;;;19.43;17.70;;;;;;;10.28;93.63;97319.50;4974032;28;20554;-71
2022/04/25 06:37:48;;;;;;;18.40;16.80;;;;;;;10.26;93.25;97330.34;4972313;28;20223;-72
2022/04/25 06:40:14;;;;;;;20.30;18.50;;;;;;;10.42;97.50;97328.81;4974284;28;20204;-72
2022/04/25 06:42:41;;;;;;;21.17;19.13;;;;;;;10.55;100.00;97326.66;4977850;28;20208;-71
2022/04/25 06:45:08;;;;;;;20.50;18.60;;;;;;;10.50;97.15;97334.56;4978043;28;20214;-71
2022/04/25 06:47:35;;;;;;;21.03;19.03;;;;;;;10.65;98.71;97328.72;4977672;28;20246;-71
2022/04/25 06:50:02;;;;;;;19.67;17.83;;;;;;;10.84;92.13;97333.63;4977874;28;20212;-71
2022/04/25 06:52:28;;;;;;;18.73;17.10;;;;;;;10.98;90.24;97328.03;4977540;28;20231;-72
2022/04/25 06:54:54;;;;;;;18.67;16.87;;;;;;;10.86;89.12;97326.22;4976752;28;20212;-71
2022/04/25 06:57:21;;;;;;;18.23;16.57;;;;;;;10.95;91.79;97332.75;4977483;28;20224;-71
2022/04/25 06:59:47;;;;;;;19.93;17.80;;;;;;;11.13;92.07;97330.94;4977475;28;20296;-71
2022/04/25 07:02:15;;;;;;;19.70;17.90;;;;;;;11.29;88.88;97328.31;4976775;28;20215;-72
2022/04/25 07:04:42;;;;;;;20.40;18.60;;;;;;;11.21;90.81;97334.00;4977783;28;20670;-71
2022/04/25 07:07:08;;;;;;;19.70;17.90;;;;;;;11.22;90.43;97333.00;4977534;28;20315;-71
2022/04/25 07:09:35;;;;;;;20.03;18.37;;;;;;;11.35;89.41;97334.53;4977301;28;20212;-71
2022/04/25 07:12:02;;;;;;;19.23;17.43;;;;;;;11.36;86.30;97333.47;4975852;28;20205;-71
2022/04/25 07:14:28;;;;;;;18.87;17.17;;;;;;;11.00;85.61;97332.84;4977436;28;20215;-71
2022/04/25 07:16:57;;;;;;;19.37;17.47;;;;;;;11.09;88.97;97346.59;4977510;28;20228;-71
2022/04/25 07:19:24;;;;;;;19.50;17.80;;;;;;;11.05;90.42;97340.13;4977556;28;20274;-72
2022/04/25 07:30:04;;;;;;;16.10;14.60;;;;;;;11.15;86.85;97334.97;4971837;28;20671;-72
2022/04/25 07:32:32;;;;;;;18.13;16.43;;;;;;;11.77;83.71;97339.25;4977356;28;20211;-71
2022/04/25 07:35:01;;;;;;;19.43;17.53;;;;;;;12.07;83.40;97341.53;4977815;28;20232;-72
2022/04/25 07:37:28;;;;;;;17.97;16.17;;;;;;;12.48;83.67;97347.13;4975254;28;20235;-71
2022/04/25 07:39:56;;;;;;;18.33;16.70;;;;;;;12.21;81.08;97340.13;4976718;28;20685;-72
2022/04/25 07:42:22;;;;;;;17.37;15.77;;;;;;;12.20;81.22;97351.84;4977269;28;20305;-71
2022/04/25 07:44:48;;;;;;;17.93;16.23;;;;;;;12.11;79.65;97350.66;4976170;28;20217;-72
2022/04/25 07:47:15;;;;;;;18.67;16.37;;;;;;;11.86;81.13;97348.44;4976604;28;20232;-71
2022/04/25 07:49:42;;;;;;;16.13;14.70;;;;;;;11.88;76.89;97340.16;4976907;28;20203;-71
2022/04/25 07:52:09;;;;;;;14.00;12.70;;;;;;;12.02;75.42;97346.78;4974307;28;20212;-71
2022/04/25 07:54:36;;;;;;;15.63;14.07;;;;;;;12.16;81.10;97348.06;4976570;28;20226;-71
2022/04/25 07:57:03;;;;;;;14.73;13.43;;;;;;;12.47;75.48;97350.03;4976614;28;20238;-71
2022/04/25 07:59:30;;;;;;;16.47;14.93;;;;;;;12.52;78.12;97348.25;4976856;28;20266;-72
2022/04/25 08:01:56;;;;;;;17.20;15.60;;;;;;;12.81;78.98;97344.34;4976523;28;20207;-71
2022/04/25 08:04:22;;;;;;;15.53;14.17;;;;;;;12.87;77.54;97346.00;4976551;28;20221;-71
2022/04/25 08:06:49;;;;;;;16.03;14.53;;;;;;;12.51;77.66;97354.66;4974832;28;20584;-72
2022/04/25 08:09:16;;;;;;;16.57;15.07;;;;;;;12.19;79.36;97352.88;4976701;28;20211;-71
2022/04/25 08:11:43;;;;;;;17.80;15.77;;;;;;;12.42;79.01;97358.81;4976111;28;20214;-71
2022/04/25 08:19:39;;;;;;;15.50;14.10;;;;;;;12.15;80.42;97362.41;4976541;28;20315;-71
2022/04/25 08:22:07;;;;;;;16.23;14.70;;;;;;;12.38;79.28;97359.56;4976461;28;20208;-72
2022/04/25 08:24:36;;;;;;;15.70;14.20;;;;;;;12.56;78.05;97365.38;4976277;28;20242;-72
2022/04/25 08:27:05;;;;;;;14.93;13.63;;;;;;;12.29;82.44;97361.81;4974884;28;20269;-71
2022/04/25 08:29:32;;;;;;;15.83;14.43;;;;;;;12.52;80.51;97363.47;4957034;28;20212;-71
2022/04/25 08:31:58;;;;;;;16.57;15.00;;;;;;;12.43;79.59;97370.28;4956981;29;20251;-72
2022/04/25 08:34:25;;;;;;;15.23;13.93;;;;;;;12.20;78.94;97367.84;4956975;29;20215;-72
2022/04/25 08:36:52;;;;;;;14.73;13.43;;;;;;;12.32;77.42;97374.66;4956840;28;20212;-71
2022/04/25 08:39:19;;;;;;;13.73;12.50;;;;;;;12.33;77.53;97380.78;4956900;29;20209;-71
2022/04/25 08:41:49;;;;;;;15.00;13.70;;;;;;;12.24;77.90;97382.25;4956725;28;20215;-72
2022/04/25 08:44:19;;;;;;;14.67;13.37;;;;;;;11.90;78.71;97381.53;4964521;28;20212;-72
2022/04/25 08:46:49;;;;;;;14.77;13.57;;;;;;;11.89;83.56;97385.22;4975564;28;20303;-71
2022/04/25 08:49:16;;;;;;;15.30;14.00;;;;;;;11.73;84.67;97377.22;4975983;28;20203;-71
2022/04/25 08:51:43;;;;;;;15.80;14.30;;;;;;;11.67;81.12;97394.19;4973978;28;20734;-71
2022/04/25 08:54:09;;;;;;;14.40;13.20;;;;;;;11.90;76.50;97388.69;4975553;28;20207;-71
2022/04/25 08:56:37;;;;;;;14.53;13.23;;;;;;;11.73;78.65;97395.88;4975320;28;20698;-72
2022/04/25 08:59:08;;;;;;;15.30;14.00;;;;;;;11.77;84.27;97381.84;4975756;28;20218;-72
2022/04/25 09:01:36;;;;;;;15.33;13.70;;;;;;;11.92;79.46;97383.91;4974060;28;20210;-71
2022/04/25 09:04:03;;;;;;;15.63;14.10;;;;;;;12.41;77.86;97396.38;4975696;28;20211;-72
2022/04/25 09:06:30;;;;;;;17.97;14.67;;;;;;;12.55;79.11;97401.09;4975686;28;20222;-72
2022/04/25 09:08:57;;;;;;;15.10;13.80;;;;;;;12.60;77.58;97403.81;4975265;28;20236;-72
2022/04/25 09:14:13;;;;;;;16.80;15.13;;;;;;;12.39;78.62;97412.59;4975558;28;20179;-72
2022/04/25 09:16:40;;;;;;;15.23;13.93;;;;;;;13.15;74.05;97417.84;4973239;28;20666;-71
2022/04/25 09:19:07;;;;;;;15.10;13.90;;;;;;;12.76;75.45;97418.16;4975212;28;20219;-72
2022/04/25 09:21:42;;;;;;;14.33;13.13;;;;;;;12.84;76.29;97409.72;4975870;28;20214;-72
2022/04/25 09:24:24;;;;;;;14.80;13.60;;;;;;;12.95;74.96;97414.94;4973917;28;20341;-72
2022/04/25 09:27:12;;;;;;;14.20;12.93;;;;;;;13.03;74.36;97424.41;4973689;28;20239;-72
2022/04/25 09:29:40;;;;;;;14.10;12.87;;;;;;;12.93;73.56;97419.69;4975010;28;20208;-72
2022/04/25 09:32:09;;;;;;;14.07;12.87;;;;;;;13.07;75.64;97426.31;4974741;28;20219;-71
2022/04/25 09:37:20;;;;;;;14.27;13.00;;;;;;;12.97;72.25;97422.72;4974806;28;20226;-72
2022/04/25 09:39:47;;;;;;;14.07;12.87;;;;;;;13.34;70.96;97424.47;4975036;28;20246;-72
2022/04/25 09:42:14;;;;;;;14.97;13.47;;;;;;;13.68;72.38;97415.19;4974075;28;20219;-72
2022/04/25 09:44:55;;;;;;;13.70;12.50;;;;;;;13.73;70.72;97414.41;4974851;28;20302;-72
2022/04/25 09:47:36;;;;;;;13.53;12.23;;;;;;;14.14;71.33;97408.34;4974576;28;20231;-71
2022/04/25 09:50:11;;;;;;;14.57;13.20;;;;;;;13.97;70.75;97416.50;4973928;28;20208;-72
2022/04/25 09:52:53;;;;;;;13.47;12.27;;;;;;;14.19;66.88;97406.50;4974689;28;20203;-72
2022/04/25 09:55:19;;;;;;;14.37;13.17;;;;;;;13.91;67.78;97417.53;4974552;28;20638;-72
2022/04/25 09:57:47;;;;;;;14.50;13.30;;;;;;;14.09;66.85;97417.13;4974670;28;20234;-71
2022/04/25 10:00:28;;;;;;;13.27;12.00;;;;;;;14.51;65.33;97412.63;4974432;28;20239;-72
2022/04/25 10:02:55;;;;;;;13.80;12.47;;;;;;;14.04;68.55;97413.63;4974723;28;20203;-72
2022/04/25 10:05:21;;;;;;;13.50;12.30;;;;;;;14.24;67.26;97406.56;4974268;28;20219;-72
2022/04/25 10:07:50;;;;;;;13.87;12.67;;;;;;;14.26;67.91;97403.66;4973547;28;20234;-71
2022/04/25 10:10:16;;;;;;;14.07;12.67;;;;;;;13.87;66.79;97410.25;4973797;28;20223;-71
2022/04/25 10:12:43;;;;;;;14.00;12.70;;;;;;;13.83;66.27;97414.53;4974216;28;20743;-72
2022/04/25 10:15:10;;;;;;;13.93;12.77;;;;;;;13.35;68.90;97422.63;4974604;28;20208;-72
2022/04/25 10:17:39;;;;;;;14.07;12.73;;;;;;;13.28;69.11;97412.13;4980896;28;20226;-72
2022/04/25 10:20:07;;;;;;;14.90;13.60;;;;;;;13.45;70.37;97412.84;4981029;28;20212;-72
2022/04/25 10:22:35;;;;;;;15.07;13.67;;;;;;;13.69;69.74;97406.13;4980878;28;20207;-72
2022/04/25 10:25:03;;;;;;;13.33;12.10;;;;;;;14.10;66.38;97405.38;4979221;28;20258;-72
2022/04/25 10:27:33;;;;;;;15.00;13.70;;;;;;;13.90;69.16;97410.59;4980271;28;20227;-72
2022/04/25 10:30:07;;;;;;;14.90;13.50;;;;;;;14.04;65.66;97405.59;4980634;28;20196;-72
2022/04/25 10:32:34;;;;;;;14.90;13.40;;;;;;;14.18;68.05;97410.25;4980643;28;20188;-72
2022/04/25 10:35:00;;;;;;;14.47;13.17;;;;;;;14.08;68.15;97409.38;4980776;28;20571;-71
2022/04/25 10:37:38;;;;;;;14.50;13.07;;;;;;;13.99;68.06;97411.72;4980787;28;20274;-72
2022/04/25 10:40:09;;;;;;;14.47;12.73;;;;;;;13.96;68.57;97419.44;4979093;28;20196;-72
2022/04/25 10:45:59;;;;;;;14.70;13.40;;;;;;;14.41;63.90;97422.44;4980915;28;20214;-72
2022/04/25 10:48:27;;;;;;;13.07;11.77;;;;;;;14.49;61.21;97417.44;4980215;28;20236;-72
2022/04/25 10:51:13;;;;;;;14.43;13.33;;;;;;;14.19;70.17;97411.84;4980326;28;20223;-72
2022/04/25 10:53:59;;;;;;;12.27;11.27;;;;;;;14.57;66.29;97408.91;4980889;28;20192;-72
2022/04/25 10:56:27;;;;;;;12.60;11.50;;;;;;;14.73;63.79;97415.13;4979794;28;20218;-72
2022/04/25 10:59:23;;;;;;;13.87;12.57;;;;;;;14.02;63.65;97413.88;4977455;28;20713;-72
2022/04/25 11:01:51;;;;;;;13.80;12.50;;;;;;;13.68;63.56;97415.19;4980798;28;20212;-72
2022/04/25 11:04:19;;;;;;;12.90;11.80;;;;;;;14.25;61.50;97420.75;4980627;28;20566;-72
2022/04/25 11:06:46;;;;;;;13.33;12.23;;;;;;;14.40;61.23;97419.00;4979800;28;20211;-72
2022/04/25 11:09:32;;;;;;;13.13;11.80;;;;;;;14.55;62.85;97427.09;4980578;28;20241;-72
2022/04/25 11:11:59;;;;;;;12.77;11.67;;;;;;;14.38;62.10;97426.44;4980255;28;20212;-72
2022/04/25 11:14:29;;;;;;;13.57;12.27;;;;;;;14.94;62.63;97425.69;4978284;28;20220;-72
2022/04/25 11:17:13;;;;;;;12.87;11.77;;;;;;;15.70;60.13;97424.84;4980470;28;20251;-72
2022/04/25 11:19:55;;;;;;;11.67;10.67;;;;;;;15.67;57.90;97435.28;4980465;28;20211;-72
2022/04/25 11:22:37;;;;;;;12.57;11.47;;;;;;;15.32;58.21;97436.00;4980645;28;20203;-72
2022/04/25 11:25:25;;;;;;;13.73;11.57;;;;;;;15.14;60.58;97433.78;4980409;28;20212;-72
2022/04/25 11:28:07;;;;;;;13.17;12.07;;;;;;;15.26;58.30;97437.06;4976979;28;20235;-72
2022/04/25 11:30:33;;;;;;;13.50;12.33;;;;;;;14.83;60.68;97437.41;4975854;28;20204;-72
2022/04/25 11:33:18;;;;;;;13.13;11.97;;;;;;;14.76;62.27;97438.72;4977290;28;20208;-72
2022/04/25 11:35:44;;;;;;;13.30;12.13;;;;;;;14.60;61.21;97447.72;4976873;28;20196;-72
2022/04/25 11:38:11;;;;;;;13.83;12.47;;;;;;;14.39;65.37;97446.78;4975997;28;20592;-72
2022/04/25 11:40:39;;;;;;;13.10;12.07;;;;;;;14.73;63.77;97442.72;4977085;28;20208;-72
2022/04/25 11:43:06;;;;;;;12.67;11.53;;;;;;;14.01;64.89;97448.84;4976896;28;20300;-72
2022/04/25 11:45:32;;;;;;;15.10;13.80;;;;;;;13.90;64.95;97453.34;4977126;28;20208;-72
2022/04/25 11:48:00;;;;;;;15.07;13.57;;;;;;;14.12;66.74;97459.41;4974882;28;20242;-72
2022/04/25 11:50:28;;;;;;;14.60;13.30;;;;;;;13.78;65.77;97454.53;4976620;28;20750;-71
2022/04/25 11:52:56;;;;;;;15.10;13.80;;;;;;;13.58;68.08;97459.69;4977008;28;20219;-71
2022/04/25 11:55:38;;;;;;;15.90;14.50;;;;;;;13.29;68.50;97467.13;4976300;28;20664;-71